Time;durP1;ratioP1;P1;durP2;ratioP2;P2;SDS_P1;SDS_P2;PMS_P1;PMS_P2;Temp;Humidity;BMP_temperature;BMP_pressure;BME280_temperature;BME280_humidity;BME280_pressure;Samples;Min_cycle;Max_cycle;Signal;HPM_P1;HPM_P2
2023/05/16 00:00:54;;;;;;;6.30;3.80;;;12.80;99.90;;;;;;5072659;28;20188;-71
2023/05/16 00:03:20;;;;;;;5.50;4.07;;;12.80;99.90;;;;;;5072788;28;20170;-71
2023/05/16 00:05:46;;;;;;;4.07;3.40;;;12.70;99.90;;;;;;5072671;28;20837;-71
2023/05/16 00:08:12;;;;;;;4.77;3.90;;;12.70;99.90;;;;;;5072305;28;20606;-71
2023/05/16 00:10:38;;;;;;;6.60;4.40;;;12.70;99.90;;;;;;5072585;28;20436;-71
2023/05/16 00:13:03;;;;;;;5.57;3.93;;;12.70;99.90;;;;;;5072397;28;20260;-71
2023/05/16 00:15:29;;;;;;;5.63;3.83;;;12.70;99.90;;;;;;5072548;28;20692;-71
2023/05/16 00:17:58;;;;;;;4.30;3.20;;;12.60;99.90;;;;;;5071625;28;20679;-71
2023/05/16 00:20:25;;;;;;;5.73;2.97;;;12.60;99.90;;;;;;5072531;28;20205;-71
2023/05/16 00:22:51;;;;;;;12.83;3.53;;;12.60;99.90;;;;;;5072952;28;20768;-71
2023/05/16 00:25:17;;;;;;;6.87;3.63;;;12.60;99.90;;;;;;5072722;28;20407;-71
2023/05/16 00:27:42;;;;;;;5.67;3.50;;;12.60;99.90;;;;;;5072422;28;20182;-71
2023/05/16 00:30:08;;;;;;;4.83;3.60;;;12.60;99.90;;;;;;5072568;28;20397;-71
2023/05/16 00:32:35;;;;;;;3.03;2.60;;;12.50;99.90;;;;;;5054659;28;20162;-71
2023/05/16 00:35:00;;;;;;;3.60;2.67;;;12.50;99.90;;;;;;5072439;28;20396;-71
2023/05/16 00:37:26;;;;;;;4.57;2.47;;;12.50;99.90;;;;;;5072116;28;20427;-71
2023/05/16 00:39:52;;;;;;;2.20;1.90;;;12.50;99.90;;;;;;5072144;28;20190;-71
2023/05/16 00:42:20;;;;;;;3.10;2.40;;;12.40;99.90;;;;;;5072195;28;20174;-71
2023/05/16 00:44:47;;;;;;;1.97;1.70;;;12.40;99.90;;;;;;5054040;28;20627;-71
2023/05/16 00:47:13;;;;;;;3.23;1.97;;;12.40;99.90;;;;;;5053859;28;20520;-71
2023/05/16 00:49:39;;;;;;;1.60;1.30;;;12.40;99.90;;;;;;5054161;28;20416;-71
2023/05/16 00:52:05;;;;;;;2.40;1.90;;;12.40;99.90;;;;;;5072074;28;20901;-71
2023/05/16 00:54:30;;;;;;;1.90;1.70;;;12.30;99.90;;;;;;5072049;28;20177;-71
2023/05/16 00:56:56;;;;;;;2.60;1.60;;;12.30;99.90;;;;;;5053553;28;20436;-72
2023/05/16 00:59:25;;;;;;;1.67;1.40;;;12.30;99.90;;;;;;5071878;28;20233;-71
2023/05/16 01:01:51;;;;;;;4.43;1.93;;;12.30;99.90;;;;;;5053620;28;20449;-71
2023/05/16 01:04:17;;;;;;;2.77;1.40;;;12.20;99.90;;;;;;5053896;28;20440;-71
2023/05/16 01:06:44;;;;;;;1.97;1.50;;;12.30;99.90;;;;;;5071806;28;20190;-71
2023/05/16 01:09:11;;;;;;;1.60;1.50;;;12.20;99.90;;;;;;5071681;28;20405;-71
2023/05/16 01:11:51;;;;;;;1.43;1.20;;;12.20;99.90;;;;;;5071846;28;20432;-72
2023/05/16 01:14:37;;;;;;;2.37;1.33;;;12.20;99.90;;;;;;5071777;28;20950;-71
2023/05/16 01:17:35;;;;;;;4.03;1.67;;;12.10;99.90;;;;;;5071394;28;20428;-71
2023/05/16 01:20:18;;;;;;;5.00;2.00;;;12.10;99.90;;;;;;5071807;28;20459;-71
2023/05/16 01:22:44;;;;;;;2.17;1.70;;;12.00;99.90;;;;;;5071753;28;20393;-71
2023/05/16 01:25:29;;;;;;;2.43;1.60;;;12.00;99.90;;;;;;5053800;28;20408;-71
2023/05/16 01:27:56;;;;;;;2.60;1.63;;;11.90;99.90;;;;;;5071230;28;20461;-71
2023/05/16 01:30:21;;;;;;;4.03;1.90;;;11.80;99.90;;;;;;5072878;28;20407;-72
2023/05/16 01:32:47;;;;;;;3.03;1.87;;;11.70;99.90;;;;;;5075293;28;20897;-71
2023/05/16 01:35:15;;;;;;;2.13;1.70;;;11.70;99.90;;;;;;5075598;28;20170;-71
2023/05/16 01:37:55;;;;;;;3.50;1.80;;;11.60;99.90;;;;;;5057186;28;20186;-71
2023/05/16 01:40:55;;;;;;;3.20;2.40;;;11.60;99.90;;;;;;5075602;28;20445;-72
2023/05/16 01:43:36;;;;;;;2.73;2.30;;;11.50;99.90;;;;;;5061671;28;20412;-69
2023/05/16 01:46:09;;;;;;;4.63;1.90;;;11.50;99.90;;;;;;5075453;28;20867;-69
2023/05/16 01:48:43;;;;;;;1.70;1.60;;;11.50;99.90;;;;;;5075144;28;20428;-71
2023/05/16 01:51:11;;;;;;;2.20;2.00;;;11.50;99.90;;;;;;5075303;28;20401;-72
2023/05/16 01:53:38;;;;;;;1.67;1.47;;;11.40;99.90;;;;;;5075249;28;20412;-72
2023/05/16 01:56:09;;;;;;;2.10;1.90;;;11.40;99.90;;;;;;5075112;28;20913;-71
2023/05/16 01:58:36;;;;;;;3.20;1.70;;;11.40;99.90;;;;;;5074754;28;20454;-71
2023/05/16 02:01:04;;;;;;;3.63;2.07;;;11.40;99.90;;;;;;5075084;28;20408;-71
2023/05/16 02:03:30;;;;;;;3.50;3.03;;;11.50;99.90;;;;;;5057063;28;20400;-71
2023/05/16 02:05:57;;;;;;;2.10;1.77;;;11.40;99.90;;;;;;5075021;28;20576;-71
2023/05/16 02:08:23;;;;;;;4.73;1.90;;;11.40;99.90;;;;;;5074687;28;20445;-71
2023/05/16 02:10:49;;;;;;;2.33;1.73;;;11.40;99.90;;;;;;5075078;28;20901;-72
2023/05/16 02:13:15;;;;;;;2.17;1.53;;;11.40;99.90;;;;;;5074756;28;20424;-71
2023/05/16 02:15:40;;;;;;;5.63;2.80;;;11.40;99.90;;;;;;5074954;28;20162;-72
2023/05/16 02:18:06;;;;;;;2.10;1.83;;;11.40;99.90;;;;;;5074312;28;20285;-71
2023/05/16 02:20:32;;;;;;;2.70;2.50;;;11.30;99.90;;;;;;5074877;28;20556;-72
2023/05/16 02:22:58;;;;;;;3.63;2.07;;;11.30;99.90;;;;;;5056703;28;20184;-71
2023/05/16 02:25:23;;;;;;;3.83;2.20;;;11.20;99.90;;;;;;5074730;28;20405;-71
2023/05/16 02:27:49;;;;;;;6.93;2.10;;;11.20;99.90;;;;;;5074295;28;20182;-71
2023/05/16 02:30:14;;;;;;;7.20;1.73;;;11.10;99.90;;;;;;5074522;28;20169;-71
2023/05/16 02:32:43;;;;;;;4.13;3.20;;;11.10;99.90;;;;;;5074571;28;20537;-71
2023/05/16 02:35:09;;;;;;;4.87;2.93;;;11.00;99.90;;;;;;5074459;28;20572;-71
2023/05/16 02:37:34;;;;;;;5.17;2.53;;;11.00;99.90;;;;;;5074218;28;20459;-71
2023/05/16 02:40:00;;;;;;;2.23;1.47;;;11.00;99.90;;;;;;5074345;28;20280;-71
2023/05/16 02:42:26;;;;;;;5.40;2.20;;;11.00;99.90;;;;;;5074035;28;20174;-71
2023/05/16 02:44:52;;;;;;;3.80;2.10;;;11.00;99.90;;;;;;5074318;28;20162;-71
2023/05/16 02:47:17;;;;;;;2.87;2.53;;;11.00;99.90;;;;;;5073876;28;20481;-71
2023/05/16 02:49:43;;;;;;;4.10;1.67;;;11.00;99.90;;;;;;5074209;28;20173;-71
2023/05/16 02:52:08;;;;;;;5.43;2.20;;;10.90;99.90;;;;;;5074315;28;20162;-71
2023/05/16 02:54:34;;;;;;;3.37;2.43;;;10.90;99.90;;;;;;5074256;28;20253;-71
2023/05/16 02:57:00;;;;;;;7.23;2.90;;;10.80;99.90;;;;;;5073783;28;20379;-71
2023/05/16 02:59:26;;;;;;;4.00;2.60;;;10.80;99.90;;;;;;5056031;28;20863;-71
2023/05/16 03:01:51;;;;;;;2.37;1.97;;;10.80;99.90;;;;;;5074041;28;20635;-72
2023/05/16 03:04:17;;;;;;;4.63;2.30;;;10.80;99.90;;;;;;5073978;28;20561;-71
2023/05/16 03:06:43;;;;;;;3.10;2.27;;;10.80;99.90;;;;;;5073775;28;20274;-72
2023/05/16 03:09:08;;;;;;;7.57;3.33;;;10.80;99.90;;;;;;5073656;28;20252;-71
2023/05/16 03:11:34;;;;;;;6.60;2.40;;;10.70;99.90;;;;;;5073899;28;20162;-71
2023/05/16 03:14:00;;;;;;;11.23;2.40;;;10.70;99.90;;;;;;5073748;28;20193;-71
2023/05/16 03:16:25;;;;;;;6.80;2.57;;;10.70;99.90;;;;;;5073670;28;20533;-71
2023/05/16 03:18:51;;;;;;;4.17;2.30;;;10.70;99.90;;;;;;5055608;28;20248;-71
2023/05/16 03:21:16;;;;;;;2.67;2.23;;;10.70;99.90;;;;;;5073489;28;20170;-71
2023/05/16 03:23:42;;;;;;;5.17;2.00;;;10.70;99.90;;;;;;5073595;28;20577;-71
2023/05/16 03:26:08;;;;;;;8.73;3.83;;;10.60;99.90;;;;;;5055342;28;20169;-71
2023/05/16 03:28:33;;;;;;;3.97;2.10;;;10.60;99.90;;;;;;5073212;28;20171;-71
2023/05/16 03:30:59;;;;;;;7.10;2.33;;;10.60;99.90;;;;;;5073315;28;20170;-72
2023/05/16 03:33:24;;;;;;;2.03;1.67;;;10.60;99.90;;;;;;5073384;28;20166;-72
2023/05/16 03:35:51;;;;;;;6.10;2.37;;;10.60;99.90;;;;;;5073265;28;20249;-71
2023/05/16 03:38:16;;;;;;;3.13;2.30;;;10.60;99.90;;;;;;5072761;28;20642;-72
2023/05/16 03:40:42;;;;;;;5.37;2.27;;;10.60;99.90;;;;;;5073137;28;20440;-71
2023/05/16 03:43:08;;;;;;;6.60;2.47;;;10.60;99.90;;;;;;5055267;28;20495;-71
2023/05/16 03:45:33;;;;;;;5.80;2.40;;;10.60;99.90;;;;;;5073132;28;20640;-73
2023/05/16 03:47:59;;;;;;;6.90;3.57;;;10.60;99.90;;;;;;5072953;28;20686;-72
2023/05/16 03:50:25;;;;;;;11.13;2.87;;;10.60;99.90;;;;;;5072930;28;20533;-71
2023/05/16 03:52:52;;;;;;;9.67;2.50;;;10.60;99.90;;;;;;5072284;28;20527;-71
2023/05/16 03:55:18;;;;;;;4.43;3.00;;;10.60;99.90;;;;;;5072978;28;20170;-71
2023/05/16 03:57:45;;;;;;;2.77;2.37;;;10.60;99.90;;;;;;5054722;28;20443;-72
2023/05/16 04:00:11;;;;;;;6.33;2.60;;;10.60;99.90;;;;;;5072921;28;20564;-72
2023/05/16 04:02:39;;;;;;;7.70;2.60;;;10.60;99.90;;;;;;5072698;28;20734;-71
2023/05/16 04:05:09;;;;;;;3.70;2.27;;;10.60;99.90;;;;;;5072820;28;20806;-70
2023/05/16 04:07:34;;;;;;;2.60;2.20;;;10.60;99.90;;;;;;5072484;28;20487;-71
2023/05/16 04:10:00;;;;;;;4.43;2.43;;;10.60;99.90;;;;;;5054810;28;20416;-71
2023/05/16 04:12:26;;;;;;;8.40;2.90;;;10.60;99.90;;;;;;5072587;28;20412;-71
2023/05/16 04:14:52;;;;;;;5.10;2.40;;;10.60;99.90;;;;;;5072028;28;20709;-71
2023/05/16 04:17:17;;;;;;;4.70;2.27;;;10.50;99.90;;;;;;5071864;28;20239;-71
2023/05/16 04:19:43;;;;;;;9.13;2.60;;;10.50;99.90;;;;;;5054434;28;20729;-71
2023/05/16 04:22:08;;;;;;;4.40;2.23;;;10.50;99.90;;;;;;5072414;28;20173;-71
2023/05/16 04:24:34;;;;;;;2.17;1.93;;;10.50;99.90;;;;;;5072379;28;20245;-71
2023/05/16 04:27:00;;;;;;;8.20;2.03;;;10.50;99.90;;;;;;5071855;28;20269;-71
2023/05/16 04:29:25;;;;;;;3.03;2.30;;;10.50;99.90;;;;;;5072111;28;20601;-71
2023/05/16 04:31:51;;;;;;;4.03;1.77;;;10.50;99.90;;;;;;5072410;28;20487;-71
2023/05/16 04:34:16;;;;;;;3.83;1.67;;;10.50;99.90;;;;;;5072296;28;20566;-71
2023/05/16 04:36:42;;;;;;;5.90;1.83;;;10.50;99.90;;;;;;5054088;28;20258;-71
2023/05/16 04:39:08;;;;;;;9.70;2.97;;;10.50;99.90;;;;;;5071887;28;20715;-71
2023/05/16 04:41:35;;;;;;;5.63;1.60;;;10.50;99.90;;;;;;5072218;28;20245;-71
2023/05/16 04:44:05;;;;;;;3.90;1.90;;;10.40;99.90;;;;;;5072043;28;20166;-71
2023/05/16 04:46:30;;;;;;;6.57;2.80;;;10.30;99.90;;;;;;5072048;28;20423;-71
2023/05/16 04:48:56;;;;;;;6.07;1.73;;;10.30;99.90;;;;;;5071734;28;20773;-71
2023/05/16 04:51:22;;;;;;;9.13;2.50;;;10.30;99.90;;;;;;5071965;28;20174;-71
2023/05/16 04:53:47;;;;;;;4.67;1.57;;;10.30;99.90;;;;;;5071718;28;20177;-71
2023/05/16 04:56:13;;;;;;;3.13;2.03;;;10.30;99.90;;;;;;5071930;28;20178;-72
2023/05/16 04:58:38;;;;;;;6.20;2.00;;;10.30;99.90;;;;;;5071514;28;20279;-71
2023/05/16 05:01:04;;;;;;;6.20;2.17;;;10.40;99.90;;;;;;5071394;28;20186;-71
2023/05/16 05:03:29;;;;;;;4.60;1.93;;;10.30;99.90;;;;;;5071897;28;20162;-71
2023/05/16 05:05:55;;;;;;;5.10;2.10;;;10.30;99.90;;;;;;5071840;28;20167;-70
2023/05/16 05:08:21;;;;;;;16.37;3.10;;;10.20;99.90;;;;;;5071421;28;20194;-71
2023/05/16 05:10:47;;;;;;;5.70;1.97;;;10.10;99.90;;;;;;5071889;28;20170;-71
2023/05/16 05:13:12;;;;;;;14.50;2.70;;;10.10;99.90;;;;;;5071667;28;20428;-70
2023/05/16 05:15:38;;;;;;;3.63;1.60;;;10.10;99.90;;;;;;5071898;28;20524;-70
2023/05/16 05:18:04;;;;;;;5.40;1.70;;;10.10;99.90;;;;;;5071403;28;20706;-71
2023/05/16 05:20:29;;;;;;;6.27;2.23;;;10.30;99.90;;;;;;5071920;28;20166;-71
2023/05/16 05:22:55;;;;;;;6.33;3.33;;;10.40;99.90;;;;;;5071709;28;20194;-70
2023/05/16 05:25:21;;;;;;;6.13;2.37;;;10.60;99.90;;;;;;5071738;28;20166;-71
2023/05/16 05:27:46;;;;;;;2.70;1.57;;;10.80;99.90;;;;;;5071327;28;20197;-71
2023/05/16 05:30:12;;;;;;;6.10;2.00;;;11.00;99.90;;;;;;5071682;28;20162;-71
2023/05/16 05:32:37;;;;;;;4.27;1.60;;;11.30;99.90;;;;;;5071615;28;20159;-71
2023/05/16 05:35:03;;;;;;;3.53;1.53;;;11.60;99.90;;;;;;5071565;28;20207;-71
2023/05/16 05:37:29;;;;;;;5.53;2.30;;;12.00;99.90;;;;;;5071172;28;20205;-71
2023/05/16 05:39:55;;;;;;;6.17;2.20;;;12.40;99.90;;;;;;5071537;28;20452;-70
2023/05/16 05:42:20;;;;;;;5.00;2.10;;;12.80;99.90;;;;;;5071639;28;21101;-70
2023/05/16 05:44:46;;;;;;;6.03;1.93;;;13.20;99.90;;;;;;5071508;28;20397;-71
2023/05/16 05:47:12;;;;;;;7.67;1.70;;;13.70;99.90;;;;;;5071190;28;20186;-71
2023/05/16 05:49:37;;;;;;;3.10;1.50;;;14.20;99.90;;;;;;5071528;28;20162;-68
2023/05/16 05:52:03;;;;;;;2.60;1.57;;;14.50;99.90;;;;;;5071443;28;20253;-69
2023/05/16 05:54:29;;;;;;;8.90;1.60;;;14.80;99.90;;;;;;5071478;28;20254;-69
2023/05/16 05:56:58;;;;;;;4.50;2.03;;;15.40;99.90;;;;;;5071191;28;20193;-69
2023/05/16 05:59:23;;;;;;;3.93;1.73;;;16.10;99.90;;;;;;5071316;28;20189;-69
2023/05/16 06:01:51;;;;;;;4.73;1.80;;;17.00;99.90;;;;;;5071388;28;20914;-69
2023/05/16 06:04:18;;;;;;;5.70;1.83;;;17.80;99.90;;;;;;5071412;28;20616;-69
2023/05/16 06:06:43;;;;;;;4.00;1.83;;;18.60;99.90;;;;;;5071184;28;20428;-69
2023/05/16 06:09:09;;;;;;;4.20;1.87;;;19.20;99.90;;;;;;5071095;28;20408;-69
2023/05/16 06:11:34;;;;;;;4.87;3.17;;;19.90;99.90;;;;;;5071256;28;20216;-69
2023/05/16 06:14:00;;;;;;;6.87;2.40;;;20.30;99.50;;;;;;5071170;28;20183;-69
2023/05/16 06:16:26;;;;;;;3.17;1.90;;;20.60;95.20;;;;;;5072470;28;20274;-69
2023/05/16 06:18:51;;;;;;;3.30;1.80;;;20.80;93.00;;;;;;5074537;28;20303;-69
2023/05/16 06:21:17;;;;;;;5.67;1.50;;;20.90;86.00;;;;;;5074739;28;20162;-69
2023/05/16 06:23:42;;;;;;;6.00;1.43;;;20.60;83.00;;;;;;5074812;28;20172;-69
2023/05/16 06:26:08;;;;;;;4.73;1.40;;;20.30;84.90;;;;;;5074630;28;20624;-69
2023/05/16 06:28:34;;;;;;;2.90;1.70;;;20.10;82.60;;;;;;5056462;28;20170;-69
2023/05/16 06:30:59;;;;;;;1.97;1.27;;;19.60;84.80;;;;;;5074724;28;20563;-69
2023/05/16 06:33:25;;;;;;;7.63;1.73;;;19.10;85.50;;;;;;5074610;28;20254;-71
2023/05/16 06:35:51;;;;;;;4.80;1.80;;;18.90;92.00;;;;;;5074507;28;20174;-69
2023/05/16 06:38:18;;;;;;;2.33;1.40;;;19.00;94.20;;;;;;5074140;28;20693;-69
2023/05/16 06:40:44;;;;;;;5.00;1.93;;;19.20;92.20;;;;;;5074473;28;20401;-69
2023/05/16 06:43:10;;;;;;;6.70;2.40;;;19.10;91.80;;;;;;5074179;28;20906;-68
2023/05/16 06:45:36;;;;;;;6.40;2.77;;;19.10;91.60;;;;;;5074299;28;20158;-69
2023/05/16 06:48:02;;;;;;;4.77;2.10;;;19.40;93.00;;;;;;5073945;28;20466;-69
2023/05/16 06:50:27;;;;;;;3.77;1.60;;;20.40;93.20;;;;;;5074211;28;20726;-69
2023/05/16 06:52:53;;;;;;;5.27;1.90;;;21.20;85.50;;;;;;5074309;28;20194;-68
2023/05/16 06:55:19;;;;;;;4.00;2.20;;;21.80;80.60;;;;;;5056120;28;20221;-68
2023/05/16 06:57:44;;;;;;;6.57;2.20;;;22.20;74.30;;;;;;5073838;28;20178;-69
2023/05/16 07:00:10;;;;;;;2.40;1.80;;;22.50;67.00;;;;;;5056012;28;20263;-69
2023/05/16 07:02:36;;;;;;;2.40;1.90;;;22.90;65.40;;;;;;5074043;28;20173;-69
2023/05/16 07:05:02;;;;;;;5.80;2.20;;;23.90;63.60;;;;;;5074022;28;20400;-69
2023/05/16 07:07:28;;;;;;;4.00;2.37;;;25.20;59.30;;;;;;5073619;28;20197;-69
2023/05/16 07:09:53;;;;;;;7.10;2.77;;;26.30;55.50;;;;;;5073863;28;20169;-69
2023/05/16 07:12:19;;;;;;;4.67;2.20;;;27.40;51.30;;;;;;5073792;28;20408;-69
2023/05/16 07:14:45;;;;;;;7.43;1.50;;;28.50;49.40;;;;;;5073773;28;20186;-69
2023/05/16 07:17:11;;;;;;;6.70;1.83;;;29.70;47.30;;;;;;5073227;28;20918;-69
2023/05/16 07:19:36;;;;;;;2.53;1.50;;;30.80;44.60;;;;;;5073386;28;20208;-69
2023/05/16 07:22:02;;;;;;;3.37;1.80;;;31.90;42.30;;;;;;5073620;28;20165;-69
2023/05/16 07:24:28;;;;;;;5.57;2.10;;;32.60;39.10;;;;;;5074102;28;20241;-68
2023/05/16 07:26:53;;;;;;;3.50;2.30;;;32.50;37.20;;;;;;5073073;28;20294;-69
2023/05/16 07:29:19;;;;;;;4.30;1.83;;;32.10;36.00;;;;;;5072700;28;20443;-69
2023/05/16 07:31:45;;;;;;;5.03;1.70;;;31.40;35.10;;;;;;5073434;28;20576;-69
2023/05/16 07:34:10;;;;;;;7.00;2.63;;;30.80;36.50;;;;;;5073380;28;20206;-69
2023/05/16 07:36:36;;;;;;;5.30;2.53;;;31.30;36.70;;;;;;5073148;28;20193;-69
2023/05/16 07:39:02;;;;;;;5.30;3.80;;;31.90;36.60;;;;;;5072976;28;20444;-69
2023/05/16 07:41:29;;;;;;;2.93;1.63;;;32.20;35.60;;;;;;5073315;28;20396;-69
2023/05/16 07:43:54;;;;;;;3.30;1.73;;;32.30;34.80;;;;;;5073290;28;20163;-69
2023/05/16 07:46:20;;;;;;;2.67;1.50;;;32.40;33.10;;;;;;5073100;28;20423;-69
2023/05/16 07:48:45;;;;;;;3.97;1.63;;;32.10;33.30;;;;;;5072852;28;20526;-69
2023/05/16 07:51:11;;;;;;;4.20;1.60;;;31.40;33.20;;;;;;5073140;28;20170;-69
2023/05/16 07:53:36;;;;;;;2.63;1.43;;;31.10;33.50;;;;;;5072969;28;20173;-68
2023/05/16 07:56:02;;;;;;;3.43;1.43;;;30.20;32.70;;;;;;5073099;28;20174;-68
2023/05/16 07:58:28;;;;;;;4.07;1.73;;;29.00;33.90;;;;;;5072675;28;20563;-69
2023/05/16 08:00:54;;;;;;;5.47;1.50;;;29.30;35.80;;;;;;5072908;28;20401;-69
2023/05/16 08:03:19;;;;;;;3.10;1.50;;;29.20;35.60;;;;;;5072984;28;20162;-68
2023/05/16 08:05:45;;;;;;;2.53;1.30;;;29.00;35.10;;;;;;5054756;28;20163;-69
2023/05/16 08:08:10;;;;;;;5.23;1.30;;;29.60;36.40;;;;;;5072353;28;20213;-69
2023/05/16 08:10:36;;;;;;;3.87;1.60;;;31.20;35.40;;;;;;5072746;28;20177;-68
2023/05/16 08:13:01;;;;;;;2.10;1.30;;;32.20;33.70;;;;;;5072567;28;20654;-68
2023/05/16 08:15:27;;;;;;;1.83;1.23;;;32.80;32.10;;;;;;5073087;28;20164;-68
2023/05/16 08:17:57;;;;;;;5.60;1.33;;;32.80;31.90;;;;;;5071022;28;20225;-67
2023/05/16 08:20:23;;;;;;;8.30;2.00;;;32.60;31.30;;;;;;5072492;28;20162;-68
2023/05/16 08:22:49;;;;;;;5.67;1.67;;;31.90;31.20;;;;;;5072446;28;20479;-67
2023/05/16 08:25:15;;;;;;;2.30;1.20;;;32.30;32.00;;;;;;5072520;28;20492;-67
2023/05/16 08:27:40;;;;;;;2.67;1.70;;;34.10;31.70;;;;;;5071673;28;20178;-67
2023/05/16 08:30:06;;;;;;;3.37;1.50;;;36.10;30.10;;;;;;5072293;28;20170;-68
2023/05/16 08:32:32;;;;;;;1.63;1.40;;;37.40;28.60;;;;;;5072417;28;20169;-68
2023/05/16 08:34:58;;;;;;;6.27;1.73;;;38.60;27.50;;;;;;5072286;28;20401;-68
2023/05/16 08:37:24;;;;;;;1.70;1.47;;;39.80;26.40;;;;;;5071838;28;20655;-68
2023/05/16 08:39:50;;;;;;;4.37;1.97;;;40.90;25.90;;;;;;5071828;28;20501;-68
2023/05/16 08:42:15;;;;;;;5.60;2.30;;;42.10;24.80;;;;;;5072184;28;20375;-68
2023/05/16 08:44:41;;;;;;;2.40;1.87;;;43.00;24.50;;;;;;5072169;28;20163;-69
2023/05/16 08:47:15;;;;;;;2.50;2.17;;;44.10;23.50;;;;;;5071810;28;20647;-69
2023/05/16 08:49:42;;;;;;;2.77;2.00;;;43.90;22.30;;;;;;5072297;28;20173;-68
2023/05/16 08:52:09;;;;;;;3.20;1.80;;;42.20;22.30;;;;;;5072234;28;20404;-69
2023/05/16 08:54:36;;;;;;;2.10;1.90;;;41.40;23.00;;;;;;5072134;28;20400;-68
2023/05/16 08:57:02;;;;;;;1.83;1.40;;;42.00;23.20;;;;;;5071368;28;20424;-68
2023/05/16 08:59:28;;;;;;;5.00;2.03;;;42.80;22.60;;;;;;5071876;28;20448;-69
2023/05/16 09:01:54;;;;;;;2.63;1.50;;;44.10;22.90;;;;;;5072031;28;20411;-68
2023/05/16 09:04:20;;;;;;;2.83;1.50;;;45.10;21.60;;;;;;5071978;28;20220;-69
2023/05/16 09:06:47;;;;;;;3.10;1.67;;;45.90;21.40;;;;;;5071730;28;20399;-69
2023/05/16 09:09:12;;;;;;;3.40;1.93;;;46.50;20.90;;;;;;5071664;28;20208;-69
2023/05/16 09:11:38;;;;;;;2.00;1.87;;;47.10;20.40;;;;;;5071860;28;20408;-69
2023/05/16 09:14:04;;;;;;;2.13;1.57;;;47.50;20.70;;;;;;5071817;28;20186;-69
2023/05/16 09:16:30;;;;;;;2.70;1.77;;;48.50;20.50;;;;;;5071818;28;20259;-68
2023/05/16 09:18:57;;;;;;;2.17;1.90;;;47.60;19.40;;;;;;5071351;28;20197;-69
2023/05/16 09:21:28;;;;;;;2.37;1.83;;;45.40;19.60;;;;;;5071887;28;20197;-69
2023/05/16 09:23:54;;;;;;;4.30;1.63;;;42.40;19.70;;;;;;5071759;28;20487;-68
2023/05/16 09:26:20;;;;;;;4.07;2.03;;;40.60;20.90;;;;;;5071465;28;20915;-68
2023/05/16 09:28:46;;;;;;;4.60;1.80;;;39.70;21.00;;;;;;5071430;28;20884;-68
2023/05/16 09:31:26;;;;;;;3.73;1.57;;;38.60;21.60;;;;;;5071700;28;20382;-68
2023/05/16 09:33:55;;;;;;;7.67;3.10;;;37.90;22.70;;;;;;5071159;28;20168;-68
2023/05/16 09:36:21;;;;;;;2.70;1.93;;;38.10;22.90;;;;;;5071286;28;20443;-68
2023/05/16 09:38:46;;;;;;;3.10;2.07;;;39.50;23.70;;;;;;5052785;28;20465;-68
2023/05/16 09:41:12;;;;;;;2.77;1.73;;;41.50;23.20;;;;;;5071367;28;20162;-68
2023/05/16 09:43:39;;;;;;;2.13;1.40;;;43.20;22.00;;;;;;5071415;28;20159;-68
2023/05/16 09:46:05;;;;;;;5.03;2.20;;;44.40;21.10;;;;;;5071138;28;20670;-69
2023/05/16 09:48:34;;;;;;;2.80;1.60;;;45.50;20.50;;;;;;5071323;28;20541;-68
2023/05/16 09:51:03;;;;;;;4.30;1.70;;;46.50;20.00;;;;;;5071809;28;20173;-69
2023/05/16 09:53:33;;;;;;;2.23;1.60;;;47.30;19.70;;;;;;5075248;28;20390;-69
2023/05/16 09:56:20;;;;;;;2.83;2.10;;;48.20;19.60;;;;;;5075278;28;20517;-69
2023/05/16 09:58:46;;;;;;;3.40;1.43;;;48.60;18.90;;;;;;5074812;28;20461;-69
2023/05/16 10:01:12;;;;;;;2.97;1.80;;;48.90;18.90;;;;;;5075172;28;20774;-68
2023/05/16 10:03:39;;;;;;;2.63;1.60;;;47.40;18.30;;;;;;5075046;28;20458;-68
2023/05/16 10:06:06;;;;;;;1.50;1.40;;;44.80;18.60;;;;;;5074827;28;20518;-68
2023/05/16 10:08:36;;;;;;;2.70;1.57;;;42.70;19.40;;;;;;5074694;28;20397;-68
2023/05/16 10:11:03;;;;;;;3.17;1.70;;;42.60;20.20;;;;;;5074906;28;20932;-68
2023/05/16 10:13:31;;;;;;;1.63;1.53;;;42.60;20.10;;;;;;5074861;28;21006;-68
2023/05/16 10:15:59;;;;;;;3.83;1.40;;;43.70;20.60;;;;;;5074914;28;20864;-68
2023/05/16 10:18:29;;;;;;;1.57;1.27;;;44.60;19.80;;;;;;5074384;28;20935;-68
2023/05/16 10:20:56;;;;;;;1.90;1.30;;;43.30;19.20;;;;;;5074874;28;20396;-68
2023/05/16 10:23:25;;;;;;;3.50;1.60;;;41.90;19.90;;;;;;5074505;28;20370;-68
2023/05/16 10:25:51;;;;;;;1.60;1.30;;;41.90;20.10;;;;;;5074787;28;20450;-68
2023/05/16 10:28:17;;;;;;;1.33;1.00;;;40.40;20.20;;;;;;5074186;28;20424;-68
2023/05/16 10:30:45;;;;;;;2.13;1.50;;;38.50;21.30;;;;;;5074418;28;20446;-67
2023/05/16 10:33:16;;;;;;;1.83;1.23;;;36.40;21.50;;;;;;5074360;28;20462;-67
2023/05/16 10:35:42;;;;;;;2.40;1.37;;;34.40;22.60;;;;;;5074333;28;20411;-67
2023/05/16 10:38:10;;;;;;;1.47;1.17;;;33.50;24.10;;;;;;5073917;28;20436;-67
2023/05/16 10:40:38;;;;;;;3.27;1.77;;;35.00;25.20;;;;;;5074534;28;20437;-68
2023/05/16 10:43:05;;;;;;;2.20;1.50;;;35.30;23.80;;;;;;5074310;28;20451;-68
2023/05/16 10:45:31;;;;;;;1.67;1.20;;;34.50;23.70;;;;;;5074399;28;20882;-68
2023/05/16 10:47:58;;;;;;;1.80;1.43;;;34.80;24.70;;;;;;5073845;28;20425;-68
2023/05/16 10:50:36;;;;;;;2.63;1.70;;;36.90;24.50;;;;;;5074182;28;20253;-68
2023/05/16 10:53:18;;;;;;;5.03;1.20;;;40.00;23.80;;;;;;5074158;28;20410;-68
2023/05/16 10:55:58;;;;;;;2.47;1.50;;;43.00;22.10;;;;;;5074196;28;20454;-68
2023/05/16 10:58:30;;;;;;;2.07;1.67;;;45.40;21.10;;;;;;5073692;28;20430;-68
2023/05/16 11:01:21;;;;;;;2.43;1.67;;;46.90;19.90;;;;;;5073917;28;20372;-68
2023/05/16 11:03:56;;;;;;;3.50;2.20;;;45.30;19.00;;;;;;5073626;28;20777;-68
2023/05/16 11:06:43;;;;;;;2.30;1.40;;;42.90;18.90;;;;;;5074044;28;20388;-68
2023/05/16 11:09:12;;;;;;;3.00;1.60;;;40.90;19.80;;;;;;5073615;28;20554;-68
2023/05/16 11:11:42;;;;;;;2.47;1.50;;;39.10;20.70;;;;;;5073827;28;20761;-68
2023/05/16 11:14:08;;;;;;;2.83;1.77;;;37.70;21.30;;;;;;5073683;28;20567;-68
2023/05/16 11:16:35;;;;;;;2.77;1.70;;;36.60;22.10;;;;;;5073670;28;20508;-68
2023/05/16 11:19:07;;;;;;;3.23;1.50;;;35.10;22.60;;;;;;5073360;28;20190;-68
2023/05/16 11:22:11;;;;;;;2.40;1.20;;;33.70;23.50;;;;;;5073760;28;20388;-68
2023/05/16 11:24:38;;;;;;;3.13;1.30;;;32.40;24.60;;;;;;5068527;28;20404;-68
2023/05/16 11:27:04;;;;;;;1.80;1.30;;;32.00;25.60;;;;;;5073182;28;20417;-67
2023/05/16 11:29:36;;;;;;;5.27;1.30;;;31.70;25.80;;;;;;5073401;28;20466;-67
2023/05/16 11:32:04;;;;;;;1.97;0.90;;;32.60;26.70;;;;;;5073528;28;20740;-68
2023/05/16 11:34:31;;;;;;;1.97;1.30;;;35.10;26.50;;;;;;5073312;28;20786;-68
2023/05/16 11:36:57;;;;;;;2.70;1.23;;;36.50;25.00;;;;;;5073036;28;20435;-68
2023/05/16 11:39:25;;;;;;;2.90;1.47;;;36.50;23.80;;;;;;5073198;28;20448;-68
2023/05/16 11:41:52;;;;;;;2.93;1.27;;;36.00;23.70;;;;;;5073316;28;20449;-68
2023/05/16 11:44:18;;;;;;;1.60;1.20;;;35.00;23.40;;;;;;5072898;28;20404;-68
2023/05/16 11:46:45;;;;;;;3.47;1.60;;;33.80;23.80;;;;;;5072982;28;20419;-68
2023/05/16 11:49:11;;;;;;;5.00;1.80;;;32.40;24.40;;;;;;5072810;28;20643;-68
2023/05/16 11:51:42;;;;;;;1.30;1.00;;;31.00;25.10;;;;;;5073124;28;20412;-67
2023/05/16 11:54:09;;;;;;;7.33;2.17;;;30.10;26.40;;;;;;5072932;28;20412;-67
2023/05/16 11:56:35;;;;;;;5.37;2.00;;;30.00;27.50;;;;;;5073006;28;20913;-67
2023/05/16 11:59:02;;;;;;;2.57;1.77;;;29.70;27.90;;;;;;5072627;28;20451;-67
2023/05/16 12:01:36;;;;;;;2.47;1.20;;;30.50;28.70;;;;;;5072888;28;20480;-67
2023/05/16 12:04:08;;;;;;;4.70;2.00;;;32.40;28.60;;;;;;5072693;28;20473;-68
2023/05/16 12:06:34;;;;;;;4.17;2.27;;;35.20;27.60;;;;;;5072610;28;20444;-68
2023/05/16 12:09:02;;;;;;;1.37;1.27;;;38.00;25.90;;;;;;5072393;28;20765;-67
2023/05/16 12:11:29;;;;;;;2.50;1.83;;;40.00;24.50;;;;;;5072762;28;20170;-67
2023/05/16 12:13:55;;;;;;;2.73;1.87;;;41.20;23.10;;;;;;5071877;28;20513;-68
2023/05/16 12:16:21;;;;;;;1.73;1.40;;;43.00;22.50;;;;;;5072383;28;20488;-68
2023/05/16 12:18:48;;;;;;;2.73;1.67;;;44.50;21.50;;;;;;5072348;28;20194;-68
2023/05/16 12:21:15;;;;;;;2.30;1.70;;;43.90;20.00;;;;;;5072617;28;20393;-68
2023/05/16 12:23:41;;;;;;;1.10;1.00;;;42.10;20.10;;;;;;5072082;28;20381;-67
2023/05/16 12:26:07;;;;;;;1.87;1.23;;;40.00;20.20;;;;;;5072140;28;20401;-68
2023/05/16 12:28:34;;;;;;;4.33;1.47;;;38.60;21.20;;;;;;5071804;28;20376;-68
2023/05/16 12:30:59;;;;;;;1.93;1.33;;;37.10;21.90;;;;;;5054355;28;20443;-67
2023/05/16 12:33:26;;;;;;;3.33;1.53;;;35.50;22.70;;;;;;5072460;28;20440;-67
2023/05/16 12:35:53;;;;;;;2.43;1.27;;;33.80;23.80;;;;;;5072320;28;20539;-67
2023/05/16 12:38:19;;;;;;;2.33;1.20;;;32.00;24.80;;;;;;5071200;28;20431;-67
2023/05/16 12:40:45;;;;;;;1.60;1.00;;;30.30;26.20;;;;;;5071854;28;20440;-67
2023/05/16 12:43:21;;;;;;;2.60;1.00;;;28.80;27.70;;;;;;5071817;28;20404;-68
2023/05/16 12:45:52;;;;;;;2.37;1.07;;;27.60;29.40;;;;;;5072183;28;20453;-67